< < Back
Terminal Aerodrome Forecast


Current Version              Previous Versions:   1  2  3  4  5  6  7  8  9  

Terminal Aerodrome Forecast

994
FTUS42 KGSP 152300 RRA
TAFGSP
TAF
KGSP 152341Z 1600/1624 15003KT P6SM SCT016 BKN025
      TEMPO 1600/1602 6SM -SHRA BR OVC015
     FM160500 21003KT 6SM BR BKN009
     FM161100 26003KT 4SM BR BKN005
     FM161300 33003KT P6SM SCT024
     FM161800 VRB03KT P6SM BKN050 PROB30 1619/1624 4SM TSRA
      BKN040CB=



Latest METAR

655
SAUS70 KWBC 160500 RRH
MTRGSP
METAR KGSP 160453Z AUTO 00000KT 5SM -RA BR SCT005 BKN024 OVC030 21/21
A3013 RMK AO2 RAB32 SLP193 P0000 T02110206 402390178


USA.gov is the U.S. government's official web portal to all federal, state and local government web resources and services.